Weather at Katama Airpark

Public forecast

Using degrees Fahrenheit for public forecast. Weather courtesy of forecast.io.

Closest aviation weather report (METAR) to Katama Airpark

Closest report is Martha's Vineyard Airport, 4.6 nm (8.4 km) WNW. Retrieved 2020/09/29 21:53 UTC (44 minutes ago):

KMVY 292153Z 18009KT 10SM CLR 22/19 A2989 RMK AO2 SLP119 T02170194

Closest aviation forecast (TAF) to Katama Airpark

Closest forecast is Cape Cod Coast Guard Air Station, 18.0 nm (33.4 km) N. Retrieved 2020/09/29 18:30 UTC (4 hours ago):

TAF KFMH 291729Z 2918/3018 21005KT P6SM SCT014 SCT019 FM292100 17008KT 3SM BR OVC003 FM300700 17013G26KT 3SM BR VCSH OVC008 WS020/19045KT FM301200 19021G40KT 3SM -RA BR OVC008 WS020/19060KT FM301400 21017G34KT 3SM -RA BR OVC010